sensor_id;sensor_type;location;lat;lon;timestamp;temperature;humidity
40638;DHT22;26336;44.696;10.622;2023-12-28T00:00:06;10.20;99.90
40638;DHT22;26336;44.696;10.622;2023-12-28T00:03:10;10.20;99.90
40638;DHT22;26336;44.696;10.622;2023-12-28T00:06:14;10.10;99.90
40638;DHT22;26336;44.696;10.622;2023-12-28T00:09:18;10.10;99.90
40638;DHT22;26336;44.696;10.622;2023-12-28T00:12:22;10.10;99.90
40638;DHT22;26336;44.696;10.622;2023-12-28T00:15:26;10.10;99.90
40638;DHT22;26336;44.696;10.622;2023-12-28T00:18:30;10.00;99.90
40638;DHT22;26336;44.696;10.622;2023-12-28T00:21:34;10.10;99.90
40638;DHT22;26336;44.696;10.622;2023-12-28T00:24:41;10.00;99.90
40638;DHT22;26336;44.696;10.622;2023-12-28T00:27:45;10.00;99.90
40638;DHT22;26336;44.696;10.622;2023-12-28T00:30:49;9.90;99.90
40638;DHT22;26336;44.696;10.622;2023-12-28T00:33:53;9.80;99.90
40638;DHT22;26336;44.696;10.622;2023-12-28T00:36:57;9.80;99.90
40638;DHT22;26336;44.696;10.622;2023-12-28T00:40:01;9.80;99.90
40638;DHT22;26336;44.696;10.622;2023-12-28T00:43:07;9.80;99.90
40638;DHT22;26336;44.696;10.622;2023-12-28T00:46:10;9.80;99.90
40638;DHT22;26336;44.696;10.622;2023-12-28T00:49:14;9.70;99.90
40638;DHT22;26336;44.696;10.622;2023-12-28T00:52:18;9.70;99.90
40638;DHT22;26336;44.696;10.622;2023-12-28T00:55:22;9.70;99.90
40638;DHT22;26336;44.696;10.622;2023-12-28T00:58:26;9.70;99.90
40638;DHT22;26336;44.696;10.622;2023-12-28T01:01:29;9.70;99.90
40638;DHT22;26336;44.696;10.622;2023-12-28T01:04:36;9.70;99.90
40638;DHT22;26336;44.696;10.622;2023-12-28T01:07:40;9.60;99.90
40638;DHT22;26336;44.696;10.622;2023-12-28T01:10:45;9.60;99.90
40638;DHT22;26336;44.696;10.622;2023-12-28T01:13:50;9.50;99.90
40638;DHT22;26336;44.696;10.622;2023-12-28T01:16:55;9.40;99.90
40638;DHT22;26336;44.696;10.622;2023-12-28T01:19:59;9.40;99.90
40638;DHT22;26336;44.696;10.622;2023-12-28T01:23:03;9.30;99.90
40638;DHT22;26336;44.696;10.622;2023-12-28T01:26:12;9.30;99.90
40638;DHT22;26336;44.696;10.622;2023-12-28T01:29:17;9.20;99.90
40638;DHT22;26336;44.696;10.622;2023-12-28T01:32:21;9.10;99.90
40638;DHT22;26336;44.696;10.622;2023-12-28T01:35:25;9.00;99.90
40638;DHT22;26336;44.696;10.622;2023-12-28T01:38:29;9.00;99.90
40638;DHT22;26336;44.696;10.622;2023-12-28T01:41:34;9.00;99.90
40638;DHT22;26336;44.696;10.622;2023-12-28T01:44:38;9.00;99.90
40638;DHT22;26336;44.696;10.622;2023-12-28T01:47:42;8.90;99.90
40638;DHT22;26336;44.696;10.622;2023-12-28T01:50:46;8.90;99.90
40638;DHT22;26336;44.696;10.622;2023-12-28T01:53:51;8.90;99.90
40638;DHT22;26336;44.696;10.622;2023-12-28T01:56:56;8.90;99.90
40638;DHT22;26336;44.696;10.622;2023-12-28T02:00:01;8.80;99.90
40638;DHT22;26336;44.696;10.622;2023-12-28T02:03:16;8.70;99.90
40638;DHT22;26336;44.696;10.622;2023-12-28T02:06:23;8.80;99.90
40638;DHT22;26336;44.696;10.622;2023-12-28T02:09:27;8.80;99.90
40638;DHT22;26336;44.696;10.622;2023-12-28T02:12:31;8.70;99.90
40638;DHT22;26336;44.696;10.622;2023-12-28T02:15:35;8.70;99.90
40638;DHT22;26336;44.696;10.622;2023-12-28T02:18:43;8.70;99.90
40638;DHT22;26336;44.696;10.622;2023-12-28T02:21:49;8.70;99.90
40638;DHT22;26336;44.696;10.622;2023-12-28T02:28:06;8.70;99.90
40638;DHT22;26336;44.696;10.622;2023-12-28T02:31:25;8.70;99.90
40638;DHT22;26336;44.696;10.622;2023-12-28T02:34:34;8.60;99.90
40638;DHT22;26336;44.696;10.622;2023-12-28T02:37:42;8.60;99.90
40638;DHT22;26336;44.696;10.622;2023-12-28T02:40:49;8.60;99.90
40638;DHT22;26336;44.696;10.622;2023-12-28T02:43:53;8.50;99.90
40638;DHT22;26336;44.696;10.622;2023-12-28T02:46:57;8.50;99.90
40638;DHT22;26336;44.696;10.622;2023-12-28T02:50:01;8.50;99.90
40638;DHT22;26336;44.696;10.622;2023-12-28T02:53:05;8.50;99.90
40638;DHT22;26336;44.696;10.622;2023-12-28T02:56:08;8.40;99.90
40638;DHT22;26336;44.696;10.622;2023-12-28T02:59:12;8.30;99.90
40638;DHT22;26336;44.696;10.622;2023-12-28T03:02:16;8.30;99.90
40638;DHT22;26336;44.696;10.622;2023-12-28T03:05:20;8.30;99.90
40638;DHT22;26336;44.696;10.622;2023-12-28T03:08:24;8.30;99.90
40638;DHT22;26336;44.696;10.622;2023-12-28T03:11:31;8.30;99.90
40638;DHT22;26336;44.696;10.622;2023-12-28T03:14:34;8.30;99.90
40638;DHT22;26336;44.696;10.622;2023-12-28T03:17:38;8.20;99.90
40638;DHT22;26336;44.696;10.622;2023-12-28T03:20:42;8.10;99.90
40638;DHT22;26336;44.696;10.622;2023-12-28T03:23:46;8.10;99.90
40638;DHT22;26336;44.696;10.622;2023-12-28T03:26:50;8.20;99.90
40638;DHT22;26336;44.696;10.622;2023-12-28T03:29:54;8.10;99.90
40638;DHT22;26336;44.696;10.622;2023-12-28T03:32:58;8.20;99.90
40638;DHT22;26336;44.696;10.622;2023-12-28T03:36:03;8.10;99.90
40638;DHT22;26336;44.696;10.622;2023-12-28T03:39:08;8.10;99.90
40638;DHT22;26336;44.696;10.622;2023-12-28T03:42:13;7.90;99.90
40638;DHT22;26336;44.696;10.622;2023-12-28T03:45:17;7.90;99.90
40638;DHT22;26336;44.696;10.622;2023-12-28T03:48:21;8.00;99.90
40638;DHT22;26336;44.696;10.622;2023-12-28T03:51:25;8.00;99.90
40638;DHT22;26336;44.696;10.622;2023-12-28T03:54:30;7.90;99.90
40638;DHT22;26336;44.696;10.622;2023-12-28T03:57:33;7.90;99.90
40638;DHT22;26336;44.696;10.622;2023-12-28T04:00:40;7.90;99.90
40638;DHT22;26336;44.696;10.622;2023-12-28T04:03:44;7.90;99.90
40638;DHT22;26336;44.696;10.622;2023-12-28T04:06:49;7.90;99.90
40638;DHT22;26336;44.696;10.622;2023-12-28T04:09:53;7.90;99.90
40638;DHT22;26336;44.696;10.622;2023-12-28T04:12:57;7.90;99.90
40638;DHT22;26336;44.696;10.622;2023-12-28T04:16:02;7.90;99.90
40638;DHT22;26336;44.696;10.622;2023-12-28T04:19:06;7.80;99.90
40638;DHT22;26336;44.696;10.622;2023-12-28T04:22:11;7.80;99.90
40638;DHT22;26336;44.696;10.622;2023-12-28T04:25:15;7.80;99.90
40638;DHT22;26336;44.696;10.622;2023-12-28T04:28:21;7.70;99.90
40638;DHT22;26336;44.696;10.622;2023-12-28T04:31:25;7.70;99.90
40638;DHT22;26336;44.696;10.622;2023-12-28T04:34:30;7.70;99.90
40638;DHT22;26336;44.696;10.622;2023-12-28T04:37:34;7.60;99.90
40638;DHT22;26336;44.696;10.622;2023-12-28T04:40:39;7.60;99.90
40638;DHT22;26336;44.696;10.622;2023-12-28T04:43:43;7.50;99.90
40638;DHT22;26336;44.696;10.622;2023-12-28T04:46:47;7.50;99.90
40638;DHT22;26336;44.696;10.622;2023-12-28T04:49:51;7.50;99.90
40638;DHT22;26336;44.696;10.622;2023-12-28T04:52:55;7.50;99.90
40638;DHT22;26336;44.696;10.622;2023-12-28T04:55:59;7.50;99.90
40638;DHT22;26336;44.696;10.622;2023-12-28T04:59:03;7.50;99.90
40638;DHT22;26336;44.696;10.622;2023-12-28T05:02:08;7.40;99.90
40638;DHT22;26336;44.696;10.622;2023-12-28T05:05:12;7.40;99.90
40638;DHT22;26336;44.696;10.622;2023-12-28T05:08:16;7.40;99.90
40638;DHT22;26336;44.696;10.622;2023-12-28T05:11:20;7.40;99.90
40638;DHT22;26336;44.696;10.622;2023-12-28T05:14:24;7.40;99.90
40638;DHT22;26336;44.696;10.622;2023-12-28T05:17:28;7.40;99.90
40638;DHT22;26336;44.696;10.622;2023-12-28T05:20:32;7.40;99.90
40638;DHT22;26336;44.696;10.622;2023-12-28T05:23:36;7.30;99.90
40638;DHT22;26336;44.696;10.622;2023-12-28T05:26:46;7.30;99.90
40638;DHT22;26336;44.696;10.622;2023-12-28T05:29:50;7.20;99.90
40638;DHT22;26336;44.696;10.622;2023-12-28T05:32:54;7.30;99.90
40638;DHT22;26336;44.696;10.622;2023-12-28T05:35:58;7.20;99.90
40638;DHT22;26336;44.696;10.622;2023-12-28T05:39:02;7.10;99.90
40638;DHT22;26336;44.696;10.622;2023-12-28T05:42:06;7.10;99.90
40638;DHT22;26336;44.696;10.622;2023-12-28T05:45:10;7.10;99.90
40638;DHT22;26336;44.696;10.622;2023-12-28T05:48:15;7.10;99.90
40638;DHT22;26336;44.696;10.622;2023-12-28T05:51:18;7.10;99.90
40638;DHT22;26336;44.696;10.622;2023-12-28T05:54:22;7.10;99.90
40638;DHT22;26336;44.696;10.622;2023-12-28T05:57:26;7.10;99.90
40638;DHT22;26336;44.696;10.622;2023-12-28T06:00:33;7.10;99.90
40638;DHT22;26336;44.696;10.622;2023-12-28T06:03:37;7.10;99.90
40638;DHT22;26336;44.696;10.622;2023-12-28T06:06:41;7.10;99.90
40638;DHT22;26336;44.696;10.622;2023-12-28T06:09:44;7.10;99.90
40638;DHT22;26336;44.696;10.622;2023-12-28T06:12:50;7.10;99.90
40638;DHT22;26336;44.696;10.622;2023-12-28T06:15:54;7.10;99.90
40638;DHT22;26336;44.696;10.622;2023-12-28T06:18:58;7.00;99.90
40638;DHT22;26336;44.696;10.622;2023-12-28T06:22:03;7.00;99.90
40638;DHT22;26336;44.696;10.622;2023-12-28T06:25:07;7.00;99.90
40638;DHT22;26336;44.696;10.622;2023-12-28T06:28:11;7.00;99.90
40638;DHT22;26336;44.696;10.622;2023-12-28T06:31:15;7.00;99.90
40638;DHT22;26336;44.696;10.622;2023-12-28T06:34:19;7.00;99.90
40638;DHT22;26336;44.696;10.622;2023-12-28T06:37:23;7.00;99.90
40638;DHT22;26336;44.696;10.622;2023-12-28T06:40:27;6.90;99.90
40638;DHT22;26336;44.696;10.622;2023-12-28T06:43:34;6.90;99.90
40638;DHT22;26336;44.696;10.622;2023-12-28T06:46:37;6.90;99.90
40638;DHT22;26336;44.696;10.622;2023-12-28T06:49:41;6.80;99.90
40638;DHT22;26336;44.696;10.622;2023-12-28T06:52:45;6.90;99.90
40638;DHT22;26336;44.696;10.622;2023-12-28T06:55:49;6.90;99.90
40638;DHT22;26336;44.696;10.622;2023-12-28T06:58:53;6.90;99.90
40638;DHT22;26336;44.696;10.622;2023-12-28T07:01:57;6.90;99.90
40638;DHT22;26336;44.696;10.622;2023-12-28T07:05:01;6.90;99.90
40638;DHT22;26336;44.696;10.622;2023-12-28T07:08:08;6.90;99.90
40638;DHT22;26336;44.696;10.622;2023-12-28T07:11:12;6.90;99.90
40638;DHT22;26336;44.696;10.622;2023-12-28T07:14:16;6.90;99.90
40638;DHT22;26336;44.696;10.622;2023-12-28T07:17:20;6.90;99.90
40638;DHT22;26336;44.696;10.622;2023-12-28T07:20:25;6.80;99.90
40638;DHT22;26336;44.696;10.622;2023-12-28T07:23:29;6.90;99.90
40638;DHT22;26336;44.696;10.622;2023-12-28T07:26:36;6.80;99.90
40638;DHT22;26336;44.696;10.622;2023-12-28T07:29:40;6.90;99.90
40638;DHT22;26336;44.696;10.622;2023-12-28T07:32:43;6.80;99.90
40638;DHT22;26336;44.696;10.622;2023-12-28T07:35:48;6.90;99.90
40638;DHT22;26336;44.696;10.622;2023-12-28T07:38:52;6.90;99.90
40638;DHT22;26336;44.696;10.622;2023-12-28T07:41:56;6.90;99.90
40638;DHT22;26336;44.696;10.622;2023-12-28T07:45:01;6.90;99.90
40638;DHT22;26336;44.696;10.622;2023-12-28T07:48:05;7.00;99.90
40638;DHT22;26336;44.696;10.622;2023-12-28T07:51:13;7.00;99.90
40638;DHT22;26336;44.696;10.622;2023-12-28T07:54:17;7.10;99.90
40638;DHT22;26336;44.696;10.622;2023-12-28T07:57:21;7.10;99.90
40638;DHT22;26336;44.696;10.622;2023-12-28T08:00:25;7.20;99.90
40638;DHT22;26336;44.696;10.622;2023-12-28T08:03:29;7.20;99.90
40638;DHT22;26336;44.696;10.622;2023-12-28T08:06:33;7.30;99.90
40638;DHT22;26336;44.696;10.622;2023-12-28T08:09:37;7.30;99.90
40638;DHT22;26336;44.696;10.622;2023-12-28T08:12:41;7.40;99.90
40638;DHT22;26336;44.696;10.622;2023-12-28T08:15:49;7.40;99.90
40638;DHT22;26336;44.696;10.622;2023-12-28T08:18:53;7.50;99.90
40638;DHT22;26336;44.696;10.622;2023-12-28T08:21:57;7.50;99.90
40638;DHT22;26336;44.696;10.622;2023-12-28T08:25:04;7.70;99.90
40638;DHT22;26336;44.696;10.622;2023-12-28T08:28:08;7.70;99.90
40638;DHT22;26336;44.696;10.622;2023-12-28T08:31:12;7.80;99.90
40638;DHT22;26336;44.696;10.622;2023-12-28T08:34:17;7.80;99.90
40638;DHT22;26336;44.696;10.622;2023-12-28T08:37:21;7.90;99.90
40638;DHT22;26336;44.696;10.622;2023-12-28T08:40:25;8.00;99.90
40638;DHT22;26336;44.696;10.622;2023-12-28T08:43:29;8.10;99.90
40638;DHT22;26336;44.696;10.622;2023-12-28T08:46:33;8.20;99.90
40638;DHT22;26336;44.696;10.622;2023-12-28T08:49:37;8.30;99.90
40638;DHT22;26336;44.696;10.622;2023-12-28T08:52:41;8.50;99.90
40638;DHT22;26336;44.696;10.622;2023-12-28T08:55:45;8.50;99.90
40638;DHT22;26336;44.696;10.622;2023-12-28T08:58:49;8.60;99.90
40638;DHT22;26336;44.696;10.622;2023-12-28T09:01:56;8.70;99.90
40638;DHT22;26336;44.696;10.622;2023-12-28T09:05:00;8.80;99.90
40638;DHT22;26336;44.696;10.622;2023-12-28T09:08:05;8.90;99.90
40638;DHT22;26336;44.696;10.622;2023-12-28T09:11:12;9.10;99.90
40638;DHT22;26336;44.696;10.622;2023-12-28T09:14:16;9.10;99.90
40638;DHT22;26336;44.696;10.622;2023-12-28T09:17:23;9.30;99.90
40638;DHT22;26336;44.696;10.622;2023-12-28T09:20:27;9.40;99.90
40638;DHT22;26336;44.696;10.622;2023-12-28T09:23:32;9.50;99.90
40638;DHT22;26336;44.696;10.622;2023-12-28T09:26:36;9.70;99.90
40638;DHT22;26336;44.696;10.622;2023-12-28T09:29:40;9.80;99.90
40638;DHT22;26336;44.696;10.622;2023-12-28T09:32:44;10.00;99.90
40638;DHT22;26336;44.696;10.622;2023-12-28T09:35:48;10.10;99.90
40638;DHT22;26336;44.696;10.622;2023-12-28T09:38:52;10.30;99.90
40638;DHT22;26336;44.696;10.622;2023-12-28T09:42:04;10.40;99.90
40638;DHT22;26336;44.696;10.622;2023-12-28T09:45:08;10.60;99.90
40638;DHT22;26336;44.696;10.622;2023-12-28T09:48:18;10.70;99.90
40638;DHT22;26336;44.696;10.622;2023-12-28T09:51:22;10.90;99.90
40638;DHT22;26336;44.696;10.622;2023-12-28T09:54:26;11.00;99.90
40638;DHT22;26336;44.696;10.622;2023-12-28T09:57:34;11.20;99.90
40638;DHT22;26336;44.696;10.622;2023-12-28T10:00:38;11.20;99.90
40638;DHT22;26336;44.696;10.622;2023-12-28T10:03:42;11.40;99.90
40638;DHT22;26336;44.696;10.622;2023-12-28T10:06:46;11.50;99.90
40638;DHT22;26336;44.696;10.622;2023-12-28T10:09:50;11.50;99.90
40638;DHT22;26336;44.696;10.622;2023-12-28T10:12:54;11.60;99.90
40638;DHT22;26336;44.696;10.622;2023-12-28T10:15:59;11.60;99.90
40638;DHT22;26336;44.696;10.622;2023-12-28T10:19:03;11.60;99.90
40638;DHT22;26336;44.696;10.622;2023-12-28T10:22:07;11.70;99.90
40638;DHT22;26336;44.696;10.622;2023-12-28T10:25:11;11.70;99.90
40638;DHT22;26336;44.696;10.622;2023-12-28T10:28:16;11.80;99.90
40638;DHT22;26336;44.696;10.622;2023-12-28T10:31:22;11.80;99.90
40638;DHT22;26336;44.696;10.622;2023-12-28T10:34:26;11.80;99.90
40638;DHT22;26336;44.696;10.622;2023-12-28T10:37:32;11.90;99.90
40638;DHT22;26336;44.696;10.622;2023-12-28T10:40:37;11.90;99.90
40638;DHT22;26336;44.696;10.622;2023-12-28T10:46:48;12.00;99.90
40638;DHT22;26336;44.696;10.622;2023-12-28T10:49:55;12.00;99.90
40638;DHT22;26336;44.696;10.622;2023-12-28T10:53:15;12.00;99.90
40638;DHT22;26336;44.696;10.622;2023-12-28T10:56:36;12.10;99.90
40638;DHT22;26336;44.696;10.622;2023-12-28T11:03:17;12.10;99.90
40638;DHT22;26336;44.696;10.622;2023-12-28T11:06:22;12.20;99.90
40638;DHT22;26336;44.696;10.622;2023-12-28T11:09:30;12.20;99.90
40638;DHT22;26336;44.696;10.622;2023-12-28T11:12:35;12.10;99.90
40638;DHT22;26336;44.696;10.622;2023-12-28T11:15:41;12.20;99.90
40638;DHT22;26336;44.696;10.622;2023-12-28T11:18:46;12.30;99.90
40638;DHT22;26336;44.696;10.622;2023-12-28T11:21:51;12.30;99.90
40638;DHT22;26336;44.696;10.622;2023-12-28T11:24:56;12.40;99.90
40638;DHT22;26336;44.696;10.622;2023-12-28T11:28:08;12.40;99.90
40638;DHT22;26336;44.696;10.622;2023-12-28T11:31:16;12.40;99.90
40638;DHT22;26336;44.696;10.622;2023-12-28T11:34:34;12.40;99.90
40638;DHT22;26336;44.696;10.622;2023-12-28T11:37:38;12.50;99.90
40638;DHT22;26336;44.696;10.622;2023-12-28T11:40:47;12.50;99.90
40638;DHT22;26336;44.696;10.622;2023-12-28T11:43:55;12.50;99.90
40638;DHT22;26336;44.696;10.622;2023-12-28T11:47:10;12.60;99.90
40638;DHT22;26336;44.696;10.622;2023-12-28T11:50:14;12.50;99.90
40638;DHT22;26336;44.696;10.622;2023-12-28T11:53:18;12.60;99.90
40638;DHT22;26336;44.696;10.622;2023-12-28T11:56:25;12.60;99.90
40638;DHT22;26336;44.696;10.622;2023-12-28T11:59:31;12.60;99.90
40638;DHT22;26336;44.696;10.622;2023-12-28T12:02:36;12.60;99.90
40638;DHT22;26336;44.696;10.622;2023-12-28T12:05:40;12.60;99.90
40638;DHT22;26336;44.696;10.622;2023-12-28T12:08:48;12.50;99.90
40638;DHT22;26336;44.696;10.622;2023-12-28T12:11:53;12.50;99.90
40638;DHT22;26336;44.696;10.622;2023-12-28T12:15:00;12.50;99.90
40638;DHT22;26336;44.696;10.622;2023-12-28T12:18:04;12.40;99.90
40638;DHT22;26336;44.696;10.622;2023-12-28T12:21:08;12.50;99.90
40638;DHT22;26336;44.696;10.622;2023-12-28T12:24:12;12.50;99.90
40638;DHT22;26336;44.696;10.622;2023-12-28T12:27:17;12.40;99.90
40638;DHT22;26336;44.696;10.622;2023-12-28T12:30:21;12.40;99.90
40638;DHT22;26336;44.696;10.622;2023-12-28T12:33:26;12.50;99.90
40638;DHT22;26336;44.696;10.622;2023-12-28T12:36:30;12.50;99.90
40638;DHT22;26336;44.696;10.622;2023-12-28T12:39:34;12.50;99.90
40638;DHT22;26336;44.696;10.622;2023-12-28T12:42:40;12.50;99.90
40638;DHT22;26336;44.696;10.622;2023-12-28T12:45:46;12.40;99.90
40638;DHT22;26336;44.696;10.622;2023-12-28T12:48:58;12.50;99.90
40638;DHT22;26336;44.696;10.622;2023-12-28T12:52:03;12.50;99.90
40638;DHT22;26336;44.696;10.622;2023-12-28T12:55:11;12.50;99.90
40638;DHT22;26336;44.696;10.622;2023-12-28T12:58:15;12.50;99.90
40638;DHT22;26336;44.696;10.622;2023-12-28T13:01:21;12.50;99.90
40638;DHT22;26336;44.696;10.622;2023-12-28T13:04:26;12.50;99.90
40638;DHT22;26336;44.696;10.622;2023-12-28T13:07:33;12.50;99.90
40638;DHT22;26336;44.696;10.622;2023-12-28T13:10:37;12.60;99.90
40638;DHT22;26336;44.696;10.622;2023-12-28T13:13:41;12.60;99.90
40638;DHT22;26336;44.696;10.622;2023-12-28T13:16:45;12.60;99.90
40638;DHT22;26336;44.696;10.622;2023-12-28T13:19:52;12.60;99.90
40638;DHT22;26336;44.696;10.622;2023-12-28T13:22:55;12.60;99.90
40638;DHT22;26336;44.696;10.622;2023-12-28T13:26:00;12.60;99.90
40638;DHT22;26336;44.696;10.622;2023-12-28T13:29:04;12.70;99.90
40638;DHT22;26336;44.696;10.622;2023-12-28T13:32:09;12.70;99.90
40638;DHT22;26336;44.696;10.622;2023-12-28T13:35:13;12.70;99.90
40638;DHT22;26336;44.696;10.622;2023-12-28T13:38:20;12.70;99.90
40638;DHT22;26336;44.696;10.622;2023-12-28T13:41:25;12.70;99.90
40638;DHT22;26336;44.696;10.622;2023-12-28T13:44:29;12.70;99.90
40638;DHT22;26336;44.696;10.622;2023-12-28T13:47:33;12.70;99.90
40638;DHT22;26336;44.696;10.622;2023-12-28T13:50:37;12.70;99.90
40638;DHT22;26336;44.696;10.622;2023-12-28T13:53:41;12.70;99.90
40638;DHT22;26336;44.696;10.622;2023-12-28T13:56:45;12.60;99.90
40638;DHT22;26336;44.696;10.622;2023-12-28T13:59:49;12.70;99.90
40638;DHT22;26336;44.696;10.622;2023-12-28T14:02:53;12.70;99.90
40638;DHT22;26336;44.696;10.622;2023-12-28T14:05:57;12.70;99.90
40638;DHT22;26336;44.696;10.622;2023-12-28T14:09:01;12.70;99.90
40638;DHT22;26336;44.696;10.622;2023-12-28T14:12:05;12.70;99.90
40638;DHT22;26336;44.696;10.622;2023-12-28T14:15:10;12.60;99.90
40638;DHT22;26336;44.696;10.622;2023-12-28T14:18:14;12.60;99.90
40638;DHT22;26336;44.696;10.622;2023-12-28T14:21:18;12.60;99.90
40638;DHT22;26336;44.696;10.622;2023-12-28T14:24:22;12.60;99.90
40638;DHT22;26336;44.696;10.622;2023-12-28T14:27:29;12.60;99.90
40638;DHT22;26336;44.696;10.622;2023-12-28T14:30:34;12.60;99.90
40638;DHT22;26336;44.696;10.622;2023-12-28T14:33:39;12.60;99.90
40638;DHT22;26336;44.696;10.622;2023-12-28T14:36:45;12.60;99.90
40638;DHT22;26336;44.696;10.622;2023-12-28T14:39:55;12.60;99.90
40638;DHT22;26336;44.696;10.622;2023-12-28T14:42:59;12.50;99.90
40638;DHT22;26336;44.696;10.622;2023-12-28T14:46:03;12.50;99.90
40638;DHT22;26336;44.696;10.622;2023-12-28T14:49:08;12.50;99.90
40638;DHT22;26336;44.696;10.622;2023-12-28T14:52:12;12.40;99.90
40638;DHT22;26336;44.696;10.622;2023-12-28T14:55:19;12.40;99.90
40638;DHT22;26336;44.696;10.622;2023-12-28T14:58:28;12.40;99.90
40638;DHT22;26336;44.696;10.622;2023-12-28T15:01:33;12.40;99.90
40638;DHT22;26336;44.696;10.622;2023-12-28T15:04:37;12.40;99.90
40638;DHT22;26336;44.696;10.622;2023-12-28T15:07:42;12.40;99.90
40638;DHT22;26336;44.696;10.622;2023-12-28T15:10:47;12.30;99.90
40638;DHT22;26336;44.696;10.622;2023-12-28T15:13:52;12.30;99.90
40638;DHT22;26336;44.696;10.622;2023-12-28T15:16:56;12.20;99.90
40638;DHT22;26336;44.696;10.622;2023-12-28T15:20:01;12.20;99.90
40638;DHT22;26336;44.696;10.622;2023-12-28T15:23:05;12.20;99.90
40638;DHT22;26336;44.696;10.622;2023-12-28T15:26:10;12.20;99.90
40638;DHT22;26336;44.696;10.622;2023-12-28T15:29:14;12.20;99.90
40638;DHT22;26336;44.696;10.622;2023-12-28T15:32:19;12.20;99.90
40638;DHT22;26336;44.696;10.622;2023-12-28T15:35:23;12.20;99.90
40638;DHT22;26336;44.696;10.622;2023-12-28T15:38:27;12.10;99.90
40638;DHT22;26336;44.696;10.622;2023-12-28T15:41:32;12.10;99.90
40638;DHT22;26336;44.696;10.622;2023-12-28T15:44:36;12.10;99.90
40638;DHT22;26336;44.696;10.622;2023-12-28T15:47:40;12.10;99.90
40638;DHT22;26336;44.696;10.622;2023-12-28T15:50:44;12.10;99.90
40638;DHT22;26336;44.696;10.622;2023-12-28T15:53:50;12.00;99.90
40638;DHT22;26336;44.696;10.622;2023-12-28T15:56:54;12.00;99.90
40638;DHT22;26336;44.696;10.622;2023-12-28T16:00:02;12.00;99.90
40638;DHT22;26336;44.696;10.622;2023-12-28T16:03:16;12.00;99.90
40638;DHT22;26336;44.696;10.622;2023-12-28T16:06:20;11.90;99.90
40638;DHT22;26336;44.696;10.622;2023-12-28T16:09:24;11.90;99.90
40638;DHT22;26336;44.696;10.622;2023-12-28T16:12:31;11.90;99.90
40638;DHT22;26336;44.696;10.622;2023-12-28T16:15:35;11.90;99.90
40638;DHT22;26336;44.696;10.622;2023-12-28T16:18:41;11.90;99.90
40638;DHT22;26336;44.696;10.622;2023-12-28T16:21:45;11.90;99.90
40638;DHT22;26336;44.696;10.622;2023-12-28T16:24:51;11.90;99.90
40638;DHT22;26336;44.696;10.622;2023-12-28T16:27:58;11.80;99.90
40638;DHT22;26336;44.696;10.622;2023-12-28T16:31:02;11.80;99.90
40638;DHT22;26336;44.696;10.622;2023-12-28T16:34:07;11.80;99.90
40638;DHT22;26336;44.696;10.622;2023-12-28T16:37:11;11.80;99.90
40638;DHT22;26336;44.696;10.622;2023-12-28T16:40:15;11.80;99.90
40638;DHT22;26336;44.696;10.622;2023-12-28T16:43:19;11.80;99.90
40638;DHT22;26336;44.696;10.622;2023-12-28T16:46:23;11.70;99.90
40638;DHT22;26336;44.696;10.622;2023-12-28T16:49:27;11.70;99.90
40638;DHT22;26336;44.696;10.622;2023-12-28T16:52:31;11.70;99.90
40638;DHT22;26336;44.696;10.622;2023-12-28T16:55:35;11.60;99.90
40638;DHT22;26336;44.696;10.622;2023-12-28T16:58:39;11.60;99.90
40638;DHT22;26336;44.696;10.622;2023-12-28T17:01:43;11.60;99.90
40638;DHT22;26336;44.696;10.622;2023-12-28T17:04:47;11.50;99.90
40638;DHT22;26336;44.696;10.622;2023-12-28T17:07:52;11.50;99.90
40638;DHT22;26336;44.696;10.622;2023-12-28T17:10:57;11.50;99.90
40638;DHT22;26336;44.696;10.622;2023-12-28T17:14:01;11.30;99.90
40638;DHT22;26336;44.696;10.622;2023-12-28T17:17:09;11.20;99.90
40638;DHT22;26336;44.696;10.622;2023-12-28T17:20:14;11.30;99.90
40638;DHT22;26336;44.696;10.622;2023-12-28T17:23:37;11.30;99.90
40638;DHT22;26336;44.696;10.622;2023-12-28T17:26:46;11.30;99.90
40638;DHT22;26336;44.696;10.622;2023-12-28T17:30:00;11.30;99.90
40638;DHT22;26336;44.696;10.622;2023-12-28T17:33:07;11.30;99.90
40638;DHT22;26336;44.696;10.622;2023-12-28T17:36:12;11.30;99.90
40638;DHT22;26336;44.696;10.622;2023-12-28T17:39:16;11.30;99.90
40638;DHT22;26336;44.696;10.622;2023-12-28T17:42:23;11.30;99.90
40638;DHT22;26336;44.696;10.622;2023-12-28T17:45:36;11.20;99.90
40638;DHT22;26336;44.696;10.622;2023-12-28T17:48:48;11.20;99.90
40638;DHT22;26336;44.696;10.622;2023-12-28T17:51:58;11.20;99.90
40638;DHT22;26336;44.696;10.622;2023-12-28T17:55:08;11.20;99.90
40638;DHT22;26336;44.696;10.622;2023-12-28T17:58:13;11.20;99.90
40638;DHT22;26336;44.696;10.622;2023-12-28T18:01:17;11.20;99.90
40638;DHT22;26336;44.696;10.622;2023-12-28T18:04:21;11.10;99.90
40638;DHT22;26336;44.696;10.622;2023-12-28T18:07:25;11.10;99.90
40638;DHT22;26336;44.696;10.622;2023-12-28T18:10:29;11.10;99.90
40638;DHT22;26336;44.696;10.622;2023-12-28T18:13:33;11.10;99.90
40638;DHT22;26336;44.696;10.622;2023-12-28T18:16:37;11.20;99.90
40638;DHT22;26336;44.696;10.622;2023-12-28T18:19:41;11.20;99.90
40638;DHT22;26336;44.696;10.622;2023-12-28T18:22:45;11.20;99.90
40638;DHT22;26336;44.696;10.622;2023-12-28T18:25:49;11.10;99.90
40638;DHT22;26336;44.696;10.622;2023-12-28T18:28:54;11.10;99.90
40638;DHT22;26336;44.696;10.622;2023-12-28T18:31:58;11.10;99.90
40638;DHT22;26336;44.696;10.622;2023-12-28T18:35:02;11.00;99.90
40638;DHT22;26336;44.696;10.622;2023-12-28T18:38:06;10.90;99.90
40638;DHT22;26336;44.696;10.622;2023-12-28T18:41:11;10.90;99.90
40638;DHT22;26336;44.696;10.622;2023-12-28T18:44:15;10.80;99.90
40638;DHT22;26336;44.696;10.622;2023-12-28T18:47:19;10.70;99.90
40638;DHT22;26336;44.696;10.622;2023-12-28T18:50:23;10.70;99.90
40638;DHT22;26336;44.696;10.622;2023-12-28T18:53:27;10.70;99.90
40638;DHT22;26336;44.696;10.622;2023-12-28T18:56:31;10.70;99.90
40638;DHT22;26336;44.696;10.622;2023-12-28T18:59:35;10.70;99.90
40638;DHT22;26336;44.696;10.622;2023-12-28T19:02:42;10.70;99.90
40638;DHT22;26336;44.696;10.622;2023-12-28T19:05:46;10.60;99.90
40638;DHT22;26336;44.696;10.622;2023-12-28T19:08:50;10.70;99.90
40638;DHT22;26336;44.696;10.622;2023-12-28T19:11:54;10.70;99.90
40638;DHT22;26336;44.696;10.622;2023-12-28T19:14:58;10.70;99.90
40638;DHT22;26336;44.696;10.622;2023-12-28T19:18:02;10.70;99.90
40638;DHT22;26336;44.696;10.622;2023-12-28T19:21:06;10.70;99.90
40638;DHT22;26336;44.696;10.622;2023-12-28T19:24:10;10.70;99.90
40638;DHT22;26336;44.696;10.622;2023-12-28T19:27:16;10.60;99.90